createdAt,value
2023-09-06T00:03:06.989Z,22.41
2023-09-06T00:08:10.030Z,22.36
2023-09-06T00:13:13.641Z,22.30
2023-09-06T00:18:15.235Z,22.26
2023-09-06T00:23:18.599Z,22.21
2023-09-06T00:28:26.680Z,22.16
2023-09-06T00:33:31.704Z,22.11
2023-09-06T00:38:33.528Z,22.04
2023-09-06T00:43:35.100Z,21.99
2023-09-06T00:48:38.513Z,21.92
2023-09-06T00:53:40.796Z,21.89
2023-09-06T00:58:42.397Z,21.83
2023-09-06T01:03:44.290Z,21.76
2023-09-06T01:08:52.921Z,21.70
2023-09-06T01:13:56.942Z,21.60
2023-09-06T01:18:59.138Z,21.51
2023-09-06T01:24:03.547Z,21.42
2023-09-06T01:29:05.339Z,21.33
2023-09-06T01:34:06.953Z,21.25
2023-09-06T01:39:09.457Z,21.17
2023-09-06T01:44:11.053Z,21.12
2023-09-06T01:49:12.715Z,21.07
2023-09-06T01:54:14.356Z,21.03
2023-09-06T01:59:15.906Z,21.00
2023-09-06T02:04:17.505Z,20.95
2023-09-06T02:09:20.541Z,20.90
2023-09-06T02:14:23.612Z,20.85
2023-09-06T02:19:25.161Z,20.80
2023-09-06T02:24:26.857Z,20.76
2023-09-06T02:29:29.229Z,20.73
2023-09-06T02:34:30.781Z,20.69
2023-09-06T02:39:32.957Z,20.67
2023-09-06T02:44:34.523Z,20.65
2023-09-06T02:49:36.045Z,20.63
2023-09-06T02:54:39.129Z,20.59
2023-09-06T02:59:41.316Z,20.55
2023-09-06T03:04:42.862Z,20.51
2023-09-06T03:09:46.115Z,20.47
2023-09-06T03:14:49.263Z,20.43
2023-09-06T03:19:54.971Z,20.35
2023-09-06T03:24:56.672Z,20.30
2023-09-06T03:29:58.735Z,20.25
2023-09-06T03:35:01.924Z,20.20
2023-09-06T03:40:15.896Z,20.14
2023-09-06T03:45:22.441Z,20.09
2023-09-06T03:50:25.101Z,20.04
2023-09-06T03:55:26.682Z,20.02
2023-09-06T04:00:31.610Z,19.97
2023-09-06T04:05:46.565Z,19.92
2023-09-06T04:10:50.355Z,19.88
2023-09-06T04:15:53.624Z,19.83
2023-09-06T04:20:55.276Z,19.78
2023-09-06T04:25:57.456Z,19.74
2023-09-06T04:31:05.723Z,19.70
2023-09-06T04:36:12.481Z,19.66
2023-09-06T04:41:15.741Z,19.62
2023-09-06T04:46:24.455Z,19.59
2023-09-06T04:51:28.896Z,19.55
2023-09-06T04:56:32.832Z,19.53
2023-09-06T05:01:36.137Z,19.51
2023-09-06T05:06:38.031Z,19.48
2023-09-06T05:11:39.891Z,19.47
2023-09-06T05:16:41.921Z,19.47
2023-09-06T05:21:43.753Z,19.45
2023-09-06T05:26:46.355Z,19.43
2023-09-06T05:31:48.025Z,19.43
2023-09-06T05:36:49.785Z,19.45
2023-09-06T05:41:51.918Z,19.48
2023-09-06T05:46:53.604Z,19.51
2023-09-06T05:51:57.189Z,19.56
2023-09-06T05:56:58.915Z,19.62
2023-09-06T06:02:01.026Z,19.67
2023-09-06T06:07:02.754Z,19.73
2023-09-06T06:12:04.906Z,19.81
2023-09-06T06:17:07.576Z,19.84
2023-09-06T06:22:10.330Z,19.91
2023-09-06T06:27:11.973Z,19.98
2023-09-06T06:32:14.163Z,20.05
2023-09-06T06:37:15.798Z,20.12
2023-09-06T06:42:17.367Z,20.21
2023-09-06T06:47:23.729Z,20.28
2023-09-06T06:52:25.347Z,20.39
2023-09-06T06:57:26.982Z,20.47
2023-09-06T07:02:28.933Z,20.58
2023-09-06T07:07:30.684Z,20.67
2023-09-06T07:12:32.258Z,20.75
2023-09-06T07:17:34.293Z,20.85
2023-09-06T07:22:35.944Z,20.93
2023-09-06T07:27:37.479Z,21.03
2023-09-06T07:32:39.086Z,21.13
2023-09-06T07:37:42.484Z,21.24
2023-09-06T07:42:44.044Z,21.32
2023-09-06T07:47:45.788Z,21.43
2023-09-06T07:52:47.481Z,21.53
2023-09-06T07:57:49.124Z,21.64
2023-09-06T08:02:50.718Z,21.76
2023-09-06T08:07:52.272Z,21.87
2023-09-06T08:12:53.905Z,21.99
2023-09-06T08:17:55.668Z,22.05
2023-09-06T08:22:57.353Z,22.17
2023-09-06T08:27:58.887Z,22.28
2023-09-06T08:33:00.590Z,22.39
2023-09-06T08:38:02.296Z,22.52
2023-09-06T08:43:04.780Z,22.65
2023-09-06T08:48:07.446Z,22.76
2023-09-06T08:53:11.764Z,22.86
2023-09-06T08:58:14.071Z,22.98
2023-09-06T09:03:15.701Z,23.07
2023-09-06T09:08:17.304Z,23.18
2023-09-06T09:13:18.948Z,23.30
2023-09-06T09:18:20.881Z,23.43
2023-09-06T09:23:23.572Z,23.57
2023-09-06T09:28:25.585Z,23.69
2023-09-06T09:33:28.842Z,23.84
2023-09-06T09:38:32.115Z,23.99
2023-09-06T09:43:35.044Z,24.14
2023-09-06T09:48:37.699Z,24.32
2023-09-06T09:53:41.517Z,24.51
2023-09-06T09:58:43.482Z,24.66
2023-09-06T10:03:46.444Z,24.81
2023-09-06T10:08:49.755Z,24.98
2023-09-06T10:13:51.541Z,25.13
2023-09-06T10:18:53.354Z,25.30
2023-09-06T10:23:55.403Z,25.45
2023-09-06T10:28:58.364Z,25.62
2023-09-06T10:34:00.185Z,25.79
2023-09-06T10:39:05.485Z,25.96
2023-09-06T10:44:13.114Z,26.13
2023-09-06T10:49:22.611Z,26.27
2023-09-06T10:54:26.066Z,26.42
2023-09-06T10:59:29.102Z,26.58
2023-09-06T11:04:31.467Z,26.73
2023-09-06T11:09:34.813Z,26.90
2023-09-06T11:14:36.400Z,27.03
2023-09-06T11:19:37.971Z,27.16
2023-09-06T11:24:39.610Z,27.33
2023-09-06T11:29:41.199Z,27.47
2023-09-06T11:34:45.120Z,27.63
2023-09-06T11:39:47.722Z,27.81
2023-09-06T11:44:51.758Z,27.94
2023-09-06T11:49:56.407Z,28.10
2023-09-06T11:55:03.522Z,28.24
2023-09-06T12:00:26.728Z,28.35
2023-09-06T12:05:42.473Z,28.43
2023-09-06T12:11:06.709Z,28.59
2023-09-06T12:16:10.266Z,28.73
2023-09-06T12:21:11.921Z,28.87
2023-09-06T12:26:14.561Z,29.01
2023-09-06T12:31:17.954Z,29.14
2023-09-06T12:36:19.836Z,29.25
2023-09-06T12:41:21.599Z,29.36
2023-09-06T12:46:23.233Z,29.42
2023-09-06T12:51:24.939Z,29.48
2023-09-06T12:56:31.379Z,29.59
2023-09-06T13:01:33.262Z,29.69
2023-09-06T13:06:34.913Z,29.78
2023-09-06T13:11:36.590Z,29.88
2023-09-06T13:16:38.176Z,29.97
2023-09-06T13:21:39.774Z,30.08
2023-09-06T13:26:41.523Z,30.18
2023-09-06T13:31:43.400Z,30.27
2023-09-06T13:36:45.159Z,30.34
2023-09-06T13:41:48.342Z,30.44
2023-09-06T13:46:49.985Z,30.55
2023-09-06T13:51:51.529Z,30.63
2023-09-06T13:56:53.103Z,30.74
2023-09-06T14:01:54.824Z,30.83
2023-09-06T14:06:56.456Z,30.93
2023-09-06T14:11:58.080Z,31.03
2023-09-06T14:16:59.735Z,31.15
2023-09-06T14:22:01.264Z,31.26
2023-09-06T14:27:04.959Z,31.38
2023-09-06T14:32:07.286Z,31.53
2023-09-06T14:37:08.984Z,31.68
2023-09-06T14:42:10.652Z,31.83
2023-09-06T14:47:12.790Z,31.95
2023-09-06T14:52:14.649Z,32.08
2023-09-06T14:57:17.495Z,32.25
2023-09-06T15:02:19.117Z,32.39
2023-09-06T15:07:21.262Z,32.52
2023-09-06T15:12:23.040Z,32.64
2023-09-06T15:17:24.737Z,32.74
2023-09-06T15:22:38.063Z,32.78
2023-09-06T15:27:41.557Z,32.88
2023-09-06T15:32:43.669Z,32.98
2023-09-06T15:38:08.189Z,33.07
2023-09-06T15:43:10.226Z,33.15
2023-09-06T15:48:11.958Z,33.21
2023-09-06T15:53:13.580Z,33.28
2023-09-06T15:58:15.192Z,33.35
2023-09-06T16:03:17.092Z,33.41
2023-09-06T16:08:18.767Z,33.48
2023-09-06T16:13:20.617Z,33.53
2023-09-06T16:18:22.148Z,33.56
2023-09-06T16:23:23.765Z,33.57
2023-09-06T16:28:26.631Z,33.58
2023-09-06T16:33:29.143Z,33.56
2023-09-06T16:38:31.134Z,33.53
2023-09-06T16:43:33.097Z,33.52
2023-09-06T16:48:34.942Z,33.47
2023-09-06T16:53:36.686Z,33.43
2023-09-06T16:58:38.679Z,33.36
2023-09-06T17:03:40.781Z,33.28
2023-09-06T17:08:43.084Z,33.18
2023-09-06T17:13:44.718Z,33.03
2023-09-06T17:18:46.368Z,32.82
2023-09-06T17:24:02.207Z,32.55
2023-09-06T17:29:08.698Z,32.21
2023-09-06T17:34:14.257Z,31.88
2023-09-06T17:39:15.825Z,31.55
2023-09-06T17:44:17.676Z,31.22
2023-09-06T17:49:19.489Z,30.91
2023-09-06T17:54:27.816Z,30.61
2023-09-06T17:59:30.067Z,30.33
2023-09-06T18:04:32.053Z,30.07
2023-09-06T18:09:34.767Z,29.86
2023-09-06T18:14:36.487Z,29.62
2023-09-06T18:19:38.139Z,29.43
2023-09-06T18:24:41.446Z,29.23
2023-09-06T18:29:43.241Z,29.06
2023-09-06T18:34:44.859Z,28.87
2023-09-06T18:39:49.701Z,28.70
2023-09-06T18:44:51.317Z,28.52
2023-09-06T18:49:53.149Z,28.35
2023-09-06T18:54:54.779Z,28.21
2023-09-06T18:59:56.411Z,28.04
2023-09-06T19:04:59.069Z,27.92
2023-09-06T19:10:01.429Z,27.80
2023-09-06T19:15:05.907Z,27.66
2023-09-06T19:20:11.128Z,27.57
2023-09-06T19:25:12.757Z,27.44
2023-09-06T19:30:14.457Z,27.34
2023-09-06T19:35:16.213Z,27.22
2023-09-06T19:40:17.991Z,27.11
2023-09-06T19:45:20.111Z,27.01
2023-09-06T19:50:21.816Z,26.91
2023-09-06T19:55:23.439Z,26.82
2023-09-06T20:00:25.062Z,26.71
2023-09-06T20:05:26.852Z,26.62
2023-09-06T20:10:28.706Z,26.53
2023-09-06T20:15:30.258Z,26.45
2023-09-06T20:20:31.862Z,26.37
2023-09-06T20:25:34.092Z,26.31
2023-09-06T20:30:40.631Z,26.25
2023-09-06T20:35:44.433Z,26.17
2023-09-06T20:40:56.643Z,26.09
2023-09-06T20:45:58.807Z,26.03
2023-09-06T20:51:04.287Z,25.96
2023-09-06T20:56:06.616Z,25.89
2023-09-06T21:01:15.321Z,25.83
2023-09-06T21:06:17.003Z,25.77
2023-09-06T21:11:18.686Z,25.70
2023-09-06T21:16:20.418Z,25.63
2023-09-06T21:21:22.334Z,25.57
2023-09-06T21:26:24.021Z,25.48
2023-09-06T21:31:27.191Z,25.42
2023-09-06T21:36:28.869Z,25.36
2023-09-06T21:41:32.469Z,25.29
2023-09-06T21:46:34.112Z,25.22
2023-09-06T21:51:35.771Z,25.16
2023-09-06T21:56:37.490Z,25.08
2023-09-06T22:01:39.120Z,25.00
2023-09-06T22:06:59.251Z,24.93
2023-09-06T22:12:19.695Z,24.85
2023-09-06T22:17:21.327Z,24.79
2023-09-06T22:22:22.989Z,24.73
2023-09-06T22:27:24.651Z,24.67
2023-09-06T22:32:26.937Z,24.60
2023-09-06T22:37:29.200Z,24.53
2023-09-06T22:42:30.830Z,24.46
2023-09-06T22:47:32.536Z,24.42
2023-09-06T22:52:34.402Z,24.36
2023-09-06T22:57:36.077Z,24.29
2023-09-06T23:02:37.793Z,24.23
2023-09-06T23:07:40.196Z,24.16
2023-09-06T23:12:42.759Z,24.10
2023-09-06T23:17:45.956Z,24.05
2023-09-06T23:22:51.188Z,24.00
2023-09-06T23:27:53.957Z,23.96
2023-09-06T23:33:01.713Z,23.91
2023-09-06T23:38:07.471Z,23.86
2023-09-06T23:43:10.605Z,23.81
2023-09-06T23:48:12.339Z,23.76
2023-09-06T23:53:13.950Z,23.72
2023-09-06T23:58:15.589Z,23.67
